createdAt,value
2019-05-18T00:00:08.594Z,99.90
2019-05-18T00:02:37.459Z,99.90
2019-05-18T00:05:07.170Z,99.90
2019-05-18T00:07:35.729Z,99.90
2019-05-18T00:10:06.040Z,99.90
2019-05-18T00:12:34.795Z,99.90
2019-05-18T00:15:04.409Z,99.90
2019-05-18T00:17:33.383Z,99.90
2019-05-18T00:20:02.222Z,99.90
2019-05-18T00:22:30.796Z,99.90
2019-05-18T00:24:59.500Z,99.90
2019-05-18T00:27:28.064Z,99.90
2019-05-18T00:29:57.020Z,99.90
2019-05-18T00:32:25.696Z,99.90
2019-05-18T00:34:54.258Z,99.90
2019-05-18T00:37:22.851Z,99.90
2019-05-18T00:39:51.428Z,99.90
2019-05-18T00:42:20.080Z,99.90
2019-05-18T00:44:48.729Z,99.90
2019-05-18T00:47:17.390Z,99.90
2019-05-18T00:49:46.035Z,99.90
2019-05-18T00:52:14.633Z,99.90
2019-05-18T00:54:43.730Z,99.90
2019-05-18T00:57:12.473Z,99.90
2019-05-18T00:59:41.043Z,99.90
2019-05-18T01:02:09.665Z,99.90
2019-05-18T01:04:38.597Z,99.90
2019-05-18T01:07:07.155Z,99.90
2019-05-18T01:09:35.745Z,99.90
2019-05-18T01:12:04.310Z,99.90
2019-05-18T01:14:32.955Z,99.90
2019-05-18T01:17:01.516Z,99.90
2019-05-18T01:19:30.144Z,99.90
2019-05-18T01:21:58.686Z,99.90
2019-05-18T01:24:27.330Z,99.90
2019-05-18T01:26:56.073Z,99.90
2019-05-18T01:29:24.661Z,99.90
2019-05-18T01:31:53.292Z,99.90
2019-05-18T01:34:21.879Z,99.90
2019-05-18T01:36:50.536Z,99.90
2019-05-18T01:39:19.123Z,99.90
2019-05-18T01:41:47.696Z,99.90
2019-05-18T01:44:16.368Z,99.90
2019-05-18T01:46:44.960Z,99.90
2019-05-18T01:49:13.686Z,99.90
2019-05-18T01:51:42.304Z,99.90
2019-05-18T01:54:10.874Z,99.90
2019-05-18T01:56:39.423Z,99.90
2019-05-18T01:59:08.221Z,99.90
2019-05-18T02:01:37.238Z,99.90
2019-05-18T02:04:05.879Z,99.90
2019-05-18T02:06:34.524Z,99.90
2019-05-18T02:09:04.622Z,99.90
2019-05-18T02:11:33.228Z,99.90
2019-05-18T02:14:01.789Z,99.90
2019-05-18T02:16:30.384Z,99.90
2019-05-18T02:18:58.949Z,99.90
2019-05-18T02:21:27.875Z,99.90
2019-05-18T02:23:56.429Z,99.90
2019-05-18T02:26:25.022Z,99.90
2019-05-18T02:28:53.605Z,99.90
2019-05-18T02:31:22.208Z,99.90
2019-05-18T02:33:50.765Z,99.90
2019-05-18T02:36:19.416Z,99.90
2019-05-18T02:38:47.985Z,99.90
2019-05-18T02:41:16.564Z,99.90
2019-05-18T02:43:45.811Z,99.90
2019-05-18T02:46:14.769Z,99.90
2019-05-18T02:48:49.689Z,99.90
2019-05-18T02:51:13.760Z,99.90
2019-05-18T02:53:42.340Z,99.90
2019-05-18T02:56:11.012Z,99.90
2019-05-18T02:58:39.580Z,99.90
2019-05-18T03:01:08.546Z,99.90
2019-05-18T03:03:37.131Z,99.90
2019-05-18T03:06:05.863Z,99.90
2019-05-18T03:08:34.562Z,99.90
2019-05-18T03:11:03.252Z,99.90
2019-05-18T03:13:31.806Z,99.90
2019-05-18T03:16:00.825Z,99.90
2019-05-18T03:18:29.469Z,99.90
2019-05-18T03:20:58.042Z,99.90
2019-05-18T03:23:26.621Z,99.90
2019-05-18T03:25:55.277Z,99.90
2019-05-18T03:28:23.837Z,99.90
2019-05-18T03:30:52.729Z,99.90
2019-05-18T03:33:28.068Z,99.90
2019-05-18T03:35:51.554Z,99.90
2019-05-18T03:38:20.172Z,99.90
2019-05-18T03:40:48.833Z,99.90
2019-05-18T03:43:17.413Z,99.90
2019-05-18T03:45:45.966Z,99.90
2019-05-18T03:48:14.551Z,99.90
2019-05-18T03:50:43.702Z,99.90
2019-05-18T03:53:12.371Z,99.90
2019-05-18T03:55:40.982Z,99.90
2019-05-18T03:58:09.663Z,99.90
2019-05-18T04:00:38.225Z,99.90
2019-05-18T04:03:06.952Z,99.90
2019-05-18T04:05:35.563Z,99.90
2019-05-18T04:08:04.147Z,99.90
2019-05-18T04:10:32.813Z,99.90
2019-05-18T04:13:01.692Z,99.90
2019-05-18T04:15:30.269Z,99.90
2019-05-18T04:17:59.271Z,99.90
2019-05-18T04:20:28.268Z,99.90
2019-05-18T04:22:56.860Z,99.90
2019-05-18T04:25:25.427Z,99.90
2019-05-18T04:27:54.049Z,99.90
2019-05-18T04:30:22.765Z,99.90
2019-05-18T04:32:51.354Z,99.90
2019-05-18T04:35:19.952Z,99.90
2019-05-18T04:37:48.538Z,99.90
2019-05-18T04:40:17.251Z,99.90
2019-05-18T04:42:45.866Z,99.90
2019-05-18T04:45:14.716Z,99.90
2019-05-18T04:47:43.296Z,99.90
2019-05-18T04:50:12.130Z,99.90
2019-05-18T04:52:41.058Z,99.90
2019-05-18T04:55:09.804Z,99.90
2019-05-18T04:57:38.390Z,99.90
2019-05-18T05:00:10.267Z,99.90
2019-05-18T05:02:38.875Z,99.90
2019-05-18T05:05:07.897Z,99.90
2019-05-18T05:07:36.560Z,99.90
2019-05-18T05:10:07.959Z,99.90
2019-05-18T05:12:36.571Z,99.90
2019-05-18T05:15:05.969Z,99.90
2019-05-18T05:17:34.574Z,99.90
2019-05-18T05:20:18.313Z,99.90
2019-05-18T05:22:34.702Z,99.90
2019-05-18T05:25:03.449Z,99.90
2019-05-18T05:27:32.017Z,99.90
2019-05-18T05:30:00.596Z,99.90
2019-05-18T05:32:29.171Z,99.90
2019-05-18T05:34:57.852Z,99.90
2019-05-18T05:37:26.798Z,99.90
2019-05-18T05:39:55.393Z,99.90
2019-05-18T05:42:24.371Z,99.90
2019-05-18T05:44:54.247Z,99.90
2019-05-18T05:47:22.913Z,99.90
2019-05-18T05:49:51.506Z,99.90
2019-05-18T05:52:24.080Z,99.90
2019-05-18T05:54:52.594Z,99.90
2019-05-18T05:57:21.523Z,99.90
2019-05-18T05:59:50.093Z,99.90
2019-05-18T06:02:19.172Z,99.90
2019-05-18T06:04:47.742Z,99.90
2019-05-18T06:07:16.431Z,99.90
2019-05-18T06:09:45.005Z,99.90
2019-05-18T06:12:13.620Z,99.90
2019-05-18T06:14:42.286Z,99.90
2019-05-18T06:17:10.922Z,99.90
2019-05-18T06:19:39.513Z,99.90
2019-05-18T06:22:08.249Z,99.90
2019-05-18T06:24:36.896Z,99.90
2019-05-18T06:27:05.621Z,99.90
2019-05-18T06:29:34.391Z,99.90
2019-05-18T06:32:03.361Z,99.90
2019-05-18T06:34:32.396Z,99.50
2019-05-18T06:37:00.989Z,99.30
2019-05-18T06:39:29.630Z,99.20
2019-05-18T06:41:58.163Z,99.30
2019-05-18T06:44:26.765Z,99.20
2019-05-18T06:46:55.322Z,99.20
2019-05-18T06:49:23.928Z,99.50
2019-05-18T06:51:52.757Z,98.40
2019-05-18T06:54:21.360Z,98.70
2019-05-18T06:56:51.185Z,98.70
2019-05-18T06:59:20.201Z,98.20
2019-05-18T07:01:48.801Z,98.20
2019-05-18T07:04:17.389Z,98.10
2019-05-18T07:06:45.979Z,97.90
2019-05-18T07:09:14.643Z,98.00
2019-05-18T07:11:43.227Z,98.10
2019-05-18T07:14:24.862Z,97.50
2019-05-18T07:16:42.139Z,97.80
2019-05-18T07:19:10.797Z,97.70
2019-05-18T07:21:39.458Z,98.10
2019-05-18T07:24:08.188Z,97.20
2019-05-18T07:26:36.880Z,97.40
2019-05-18T07:29:05.889Z,97.30
2019-05-18T07:31:34.573Z,97.40
2019-05-18T07:34:03.297Z,97.50
2019-05-18T07:36:31.889Z,97.40
2019-05-18T07:39:00.463Z,97.30
2019-05-18T07:41:29.061Z,96.90
2019-05-18T07:43:57.610Z,96.90
2019-05-18T07:46:26.198Z,96.70
2019-05-18T07:48:54.792Z,96.20
2019-05-18T07:51:36.322Z,96.20
2019-05-18T07:53:53.666Z,96.00
2019-05-18T07:56:22.254Z,95.70
2019-05-18T07:58:50.887Z,95.50
2019-05-18T08:01:19.849Z,95.30
2019-05-18T08:03:48.452Z,95.40
2019-05-18T08:06:17.192Z,95.60
2019-05-18T08:08:45.870Z,95.40
2019-05-18T08:11:14.501Z,95.00
2019-05-18T08:13:43.241Z,94.40
2019-05-18T08:16:11.800Z,94.30
2019-05-18T08:18:40.858Z,94.10
2019-05-18T08:21:09.496Z,94.20
2019-05-18T08:23:38.106Z,93.30
2019-05-18T08:26:06.761Z,93.30
2019-05-18T08:28:35.381Z,94.70
2019-05-18T08:31:04.419Z,93.70
2019-05-18T08:33:32.983Z,93.30
2019-05-18T08:36:01.716Z,91.40
2019-05-18T08:38:30.363Z,92.80
2019-05-18T08:40:58.968Z,92.40
2019-05-18T08:43:27.573Z,92.30
2019-05-18T08:45:56.177Z,91.90
2019-05-18T08:48:24.804Z,91.90
2019-05-18T08:50:53.860Z,91.40
2019-05-18T08:53:22.724Z,92.10
2019-05-18T08:55:51.532Z,92.20
2019-05-18T08:58:20.161Z,91.70
2019-05-18T09:00:48.837Z,91.50
2019-05-18T09:03:17.434Z,90.80
2019-05-18T09:05:46.013Z,91.10
2019-05-18T09:08:14.608Z,91.40
2019-05-18T09:10:43.246Z,91.10
2019-05-18T09:13:11.838Z,91.20
2019-05-18T09:15:40.402Z,90.70
2019-05-18T09:18:08.983Z,91.20
2019-05-18T09:20:37.667Z,89.20
2019-05-18T09:23:06.642Z,90.00
2019-05-18T09:25:35.285Z,88.30
2019-05-18T09:28:03.985Z,87.80
2019-05-18T09:30:32.613Z,87.50
2019-05-18T09:33:01.150Z,87.20
2019-05-18T09:35:29.756Z,88.30
2019-05-18T09:37:58.393Z,87.10
2019-05-18T09:40:29.637Z,88.30
2019-05-18T09:42:58.358Z,87.70
2019-05-18T09:45:27.108Z,86.90
2019-05-18T09:47:55.808Z,87.00
2019-05-18T09:50:24.709Z,87.00
2019-05-18T09:52:53.303Z,86.10
2019-05-18T09:55:22.013Z,84.10
2019-05-18T09:57:51.137Z,83.10
2019-05-18T10:00:21.316Z,83.10
2019-05-18T10:02:50.047Z,81.40
2019-05-18T10:05:18.851Z,81.20
2019-05-18T10:07:47.609Z,81.60
2019-05-18T10:10:16.281Z,81.10
2019-05-18T10:12:45.684Z,80.90
2019-05-18T10:15:14.719Z,80.00
2019-05-18T10:17:43.716Z,77.50
2019-05-18T10:20:13.130Z,78.00
2019-05-18T10:22:55.061Z,78.60
2019-05-18T10:25:12.977Z,74.50
2019-05-18T10:27:41.578Z,77.00
2019-05-18T10:30:11.519Z,75.50
2019-05-18T10:32:40.213Z,73.60
2019-05-18T10:35:09.166Z,74.30
2019-05-18T10:37:38.353Z,74.30
2019-05-18T10:40:08.696Z,71.90
2019-05-18T10:42:37.695Z,72.80
2019-05-18T10:45:07.481Z,70.60
2019-05-18T10:47:36.086Z,68.90
2019-05-18T10:50:06.844Z,69.90
2019-05-18T10:52:35.417Z,68.90
2019-05-18T10:55:05.871Z,68.90
2019-05-18T10:57:39.259Z,69.30
2019-05-18T11:00:10.100Z,68.80
2019-05-18T11:02:39.244Z,69.30
2019-05-18T11:05:11.700Z,67.60
2019-05-18T11:07:40.394Z,69.60
2019-05-18T11:10:10.879Z,69.30
2019-05-18T11:12:40.102Z,67.10
2019-05-18T11:15:09.954Z,68.10
2019-05-18T11:17:38.716Z,67.80
2019-05-18T11:20:11.395Z,68.10
2019-05-18T11:22:40.167Z,68.40
2019-05-18T11:25:09.304Z,69.90
2019-05-18T11:27:38.009Z,70.60
2019-05-18T11:30:07.706Z,67.60
2019-05-18T11:32:36.792Z,69.50
2019-05-18T11:35:09.135Z,69.60
2019-05-18T11:37:37.827Z,69.20
2019-05-18T11:40:08.504Z,70.30
2019-05-18T11:42:37.782Z,69.40
2019-05-18T11:45:08.835Z,69.70
2019-05-18T11:47:37.505Z,70.90
2019-05-18T11:50:08.746Z,68.70
2019-05-18T11:52:37.532Z,69.70
2019-05-18T11:55:06.837Z,67.00
2019-05-18T11:57:35.590Z,67.90
2019-05-18T12:00:10.744Z,72.20
2019-05-18T12:02:39.413Z,70.20
2019-05-18T12:05:08.550Z,69.20
2019-05-18T12:07:37.300Z,68.90
2019-05-18T12:10:10.958Z,64.60
2019-05-18T12:12:39.801Z,64.30
2019-05-18T12:15:10.392Z,63.30
2019-05-18T12:17:39.023Z,65.90
2019-05-18T12:20:09.001Z,64.60
2019-05-18T12:22:37.738Z,63.80
2019-05-18T12:25:07.374Z,62.90
2019-05-18T12:27:36.069Z,65.90
2019-05-18T12:30:06.667Z,65.40
2019-05-18T12:32:35.256Z,64.00
2019-05-18T12:35:05.514Z,61.80
2019-05-18T12:37:34.071Z,61.10
2019-05-18T12:40:02.757Z,60.80
2019-05-18T12:42:31.622Z,60.40
2019-05-18T12:45:00.288Z,59.60
2019-05-18T12:47:28.939Z,58.30
2019-05-18T12:49:57.669Z,59.20
2019-05-18T12:52:26.602Z,59.60
2019-05-18T12:54:55.325Z,59.70
2019-05-18T12:57:24.096Z,59.70
2019-05-18T12:59:53.059Z,60.20
2019-05-18T13:02:21.653Z,61.70
2019-05-18T13:04:50.220Z,61.90
2019-05-18T13:07:18.833Z,59.90
2019-05-18T13:09:47.481Z,61.90
2019-05-18T13:12:16.150Z,61.60
2019-05-18T13:14:45.089Z,61.20
2019-05-18T13:17:13.858Z,59.70
2019-05-18T13:19:42.450Z,59.20
2019-05-18T13:22:11.124Z,56.20
2019-05-18T13:24:45.252Z,55.00
2019-05-18T13:27:09.991Z,56.60
2019-05-18T13:29:38.556Z,56.10
2019-05-18T13:32:07.135Z,55.10
2019-05-18T13:34:35.877Z,55.20
2019-05-18T13:37:04.491Z,54.10
2019-05-18T13:39:33.139Z,54.20
2019-05-18T13:42:01.737Z,52.60
2019-05-18T13:44:30.370Z,51.30
2019-05-18T13:46:58.951Z,50.10
2019-05-18T13:49:29.467Z,50.00
2019-05-18T13:51:57.825Z,48.50
2019-05-18T13:54:26.406Z,49.00
2019-05-18T13:56:55.000Z,50.10
2019-05-18T13:59:23.965Z,50.20
2019-05-18T14:01:55.067Z,48.50
2019-05-18T14:04:22.775Z,48.30
2019-05-18T14:06:51.412Z,48.60
2019-05-18T14:09:20.086Z,49.30
2019-05-18T14:11:48.715Z,49.10
2019-05-18T14:14:17.387Z,45.90
2019-05-18T14:16:46.442Z,44.00
2019-05-18T14:19:15.126Z,44.20
2019-05-18T14:21:43.720Z,42.50
2019-05-18T14:24:12.443Z,45.10
2019-05-18T14:26:44.055Z,44.30
2019-05-18T14:29:12.723Z,43.10
2019-05-18T14:31:41.392Z,43.10
2019-05-18T14:34:10.017Z,42.70
2019-05-18T14:36:38.606Z,43.40
2019-05-18T14:39:07.304Z,41.10
2019-05-18T14:41:36.063Z,40.20
2019-05-18T14:44:05.079Z,39.30
2019-05-18T14:46:33.685Z,36.80
2019-05-18T14:49:02.328Z,36.40
2019-05-18T14:51:30.939Z,37.40
2019-05-18T14:53:59.536Z,36.90
2019-05-18T14:56:28.152Z,37.20
2019-05-18T14:58:56.782Z,37.20
2019-05-18T15:01:25.494Z,37.40
2019-05-18T15:03:54.241Z,38.00
2019-05-18T15:06:22.873Z,38.60
2019-05-18T15:08:51.545Z,40.30
2019-05-18T15:11:20.201Z,41.60
2019-05-18T15:13:49.083Z,39.80
2019-05-18T15:16:17.741Z,39.80
2019-05-18T15:18:46.336Z,38.80
2019-05-18T15:21:14.976Z,38.30
2019-05-18T15:23:43.627Z,38.10
2019-05-18T15:26:12.295Z,36.60
2019-05-18T15:28:40.960Z,36.20
2019-05-18T15:31:09.937Z,34.60
2019-05-18T15:33:38.543Z,34.70
2019-05-18T15:36:07.171Z,34.60
2019-05-18T15:38:35.848Z,35.30
2019-05-18T15:41:04.563Z,36.20
2019-05-18T15:43:33.289Z,36.40
2019-05-18T15:46:01.876Z,35.70
2019-05-18T15:48:30.626Z,35.40
2019-05-18T15:50:59.474Z,35.20
2019-05-18T15:53:28.082Z,34.70
2019-05-18T15:56:05.232Z,35.20
2019-05-18T15:58:27.029Z,35.00
2019-05-18T16:00:55.594Z,35.90
2019-05-18T16:03:24.186Z,35.70
2019-05-18T16:05:52.755Z,36.40
2019-05-18T16:08:21.328Z,35.00
2019-05-18T16:10:49.934Z,35.50
2019-05-18T16:13:18.518Z,34.80
2019-05-18T16:15:47.099Z,35.70
2019-05-18T16:18:15.852Z,35.30
2019-05-18T16:20:44.496Z,36.10
2019-05-18T16:23:13.134Z,36.90
2019-05-18T16:25:41.739Z,36.20
2019-05-18T16:28:10.850Z,36.30
2019-05-18T16:30:40.959Z,36.50
2019-05-18T16:33:09.774Z,36.40
2019-05-18T16:35:42.175Z,36.30
2019-05-18T16:38:11.331Z,37.00
2019-05-18T16:40:40.112Z,38.30
2019-05-18T16:43:14.619Z,39.20
2019-05-18T16:45:43.285Z,41.10
2019-05-18T16:48:11.997Z,40.40
2019-05-18T16:50:40.706Z,41.10
2019-05-18T16:53:09.597Z,41.70
2019-05-18T16:55:38.390Z,41.90
2019-05-18T16:58:10.171Z,42.40
2019-05-18T17:00:45.938Z,43.70
2019-05-18T17:03:16.313Z,44.20
2019-05-18T17:05:48.005Z,45.50
2019-05-18T17:08:17.022Z,45.30
2019-05-18T17:10:48.331Z,45.30
2019-05-18T17:13:17.435Z,46.30
2019-05-18T17:15:46.563Z,47.00
2019-05-18T17:18:39.974Z,47.40
2019-05-18T17:20:53.968Z,48.10
2019-05-18T17:23:22.989Z,49.00
2019-05-18T17:25:51.999Z,50.40
2019-05-18T17:28:22.370Z,52.00
2019-05-18T17:30:52.940Z,53.50
2019-05-18T17:33:23.559Z,54.90
2019-05-18T17:36:00.207Z,56.00
2019-05-18T17:38:23.013Z,56.70
2019-05-18T17:40:55.944Z,57.80
2019-05-18T17:43:24.890Z,59.00
2019-05-18T17:45:53.710Z,59.20
2019-05-18T17:48:25.429Z,60.80
2019-05-18T17:50:54.347Z,62.50
2019-05-18T17:53:22.943Z,64.40
2019-05-18T17:55:53.555Z,65.10
2019-05-18T17:58:22.489Z,66.60
2019-05-18T18:00:52.967Z,68.00
2019-05-18T18:03:21.845Z,69.20
2019-05-18T18:05:53.324Z,71.00
2019-05-18T18:08:22.231Z,71.90
2019-05-18T18:10:53.043Z,73.40
2019-05-18T18:13:21.647Z,74.10
2019-05-18T18:15:50.471Z,75.80
2019-05-18T18:18:19.330Z,75.80
2019-05-18T18:20:48.157Z,77.30
2019-05-18T18:23:18.849Z,77.90
2019-05-18T18:25:49.017Z,79.00
2019-05-18T18:28:18.794Z,80.20
2019-05-18T18:30:49.884Z,80.50
2019-05-18T18:33:20.590Z,82.00
2019-05-18T18:35:49.272Z,83.30
2019-05-18T18:38:19.521Z,83.50
2019-05-18T18:40:48.532Z,84.50
2019-05-18T18:43:20.104Z,85.60
2019-05-18T18:45:50.349Z,86.30
2019-05-18T18:48:22.117Z,86.80
2019-05-18T18:50:51.151Z,88.30
2019-05-18T18:53:20.110Z,89.10
2019-05-18T18:55:49.244Z,90.20
2019-05-18T18:58:19.612Z,91.00
2019-05-18T19:00:50.445Z,91.20
2019-05-18T19:03:19.167Z,91.70
2019-05-18T19:05:50.928Z,92.30
2019-05-18T19:08:20.405Z,92.60
2019-05-18T19:10:49.231Z,92.90
2019-05-18T19:13:18.058Z,93.30
2019-05-18T19:15:47.098Z,93.70
2019-05-18T19:18:16.605Z,93.80
2019-05-18T19:20:45.619Z,94.10
2019-05-18T19:23:14.475Z,94.20
2019-05-18T19:25:43.245Z,94.50
2019-05-18T19:28:11.874Z,94.70
2019-05-18T19:30:42.571Z,95.20
2019-05-18T19:33:20.305Z,95.40
2019-05-18T19:35:49.265Z,95.60
2019-05-18T19:38:18.178Z,95.90
2019-05-18T19:40:47.149Z,96.20
2019-05-18T19:43:15.993Z,96.40
2019-05-18T19:45:44.727Z,96.70
2019-05-18T19:48:13.413Z,96.60
2019-05-18T19:50:42.491Z,96.80
2019-05-18T19:53:11.208Z,97.00
2019-05-18T19:55:40.278Z,97.30
2019-05-18T19:58:09.493Z,97.40
2019-05-18T20:00:38.449Z,97.40
2019-05-18T20:03:07.317Z,97.40
2019-05-18T20:05:36.659Z,97.60
2019-05-18T20:08:05.334Z,97.60
2019-05-18T20:10:51.091Z,97.70
2019-05-18T20:13:09.377Z,98.10
2019-05-18T20:15:38.163Z,97.80
2019-05-18T20:18:06.956Z,98.20
2019-05-18T20:20:35.734Z,98.00
2019-05-18T20:23:08.057Z,98.00
2019-05-18T20:25:34.963Z,98.00
2019-05-18T20:28:03.544Z,98.10
2019-05-18T20:30:32.309Z,98.30
2019-05-18T20:33:01.026Z,98.30
2019-05-18T20:35:30.155Z,98.30
2019-05-18T20:37:59.000Z,98.40
2019-05-18T20:40:27.701Z,98.40
2019-05-18T20:42:56.571Z,98.60
2019-05-18T20:45:25.267Z,98.50
2019-05-18T20:47:54.451Z,98.70
2019-05-18T20:50:23.218Z,98.60
2019-05-18T20:52:51.875Z,98.80
2019-05-18T20:55:20.700Z,98.90
2019-05-18T20:57:49.434Z,98.80
2019-05-18T21:00:18.239Z,98.90
2019-05-18T21:02:47.312Z,99.10
2019-05-18T21:05:16.558Z,99.20
2019-05-18T21:07:45.270Z,99.10
2019-05-18T21:10:14.034Z,99.20
2019-05-18T21:12:42.690Z,99.20
2019-05-18T21:15:12.215Z,99.20
2019-05-18T21:17:40.814Z,99.20
2019-05-18T21:20:11.589Z,99.20
2019-05-18T21:22:40.230Z,99.20
2019-05-18T21:25:09.093Z,99.20
2019-05-18T21:27:37.937Z,99.20
2019-05-18T21:30:07.954Z,99.20
2019-05-18T21:32:36.665Z,99.10
2019-05-18T21:35:08.419Z,99.20
2019-05-18T21:37:37.266Z,99.40
2019-05-18T21:40:12.063Z,99.50
2019-05-18T21:42:38.451Z,99.40
2019-05-18T21:45:08.082Z,99.30
2019-05-18T21:47:36.773Z,99.30
2019-05-18T21:50:07.140Z,99.30
2019-05-18T21:52:36.354Z,99.40
2019-05-18T21:55:13.175Z,99.30
2019-05-18T21:57:42.332Z,99.30
2019-05-18T22:00:11.546Z,99.40
2019-05-18T22:02:43.387Z,99.30
2019-05-18T22:05:12.143Z,99.40
2019-05-18T22:07:40.969Z,99.50
2019-05-18T22:10:24.879Z,99.50
2019-05-18T22:12:42.290Z,99.60
2019-05-18T22:15:11.387Z,99.60
2019-05-18T22:17:58.046Z,99.70
2019-05-18T22:20:26.679Z,99.90
2019-05-18T22:22:55.399Z,99.90
2019-05-18T22:25:24.122Z,99.90
2019-05-18T22:27:53.389Z,99.90
2019-05-18T22:30:22.466Z,99.90
2019-05-18T22:32:51.278Z,99.90
2019-05-18T22:35:20.047Z,99.90
2019-05-18T22:37:49.035Z,99.90
2019-05-18T22:40:18.151Z,99.90
2019-05-18T22:42:47.007Z,99.90
2019-05-18T22:45:15.880Z,99.90
2019-05-18T22:47:44.572Z,99.90
2019-05-18T22:50:13.444Z,99.90
2019-05-18T22:52:42.400Z,99.90
2019-05-18T22:55:11.258Z,99.90
2019-05-18T22:57:40.389Z,99.90
2019-05-18T23:00:09.358Z,99.90
2019-05-18T23:02:38.299Z,99.90
2019-05-18T23:05:07.253Z,99.90
2019-05-18T23:07:35.959Z,99.90
2019-05-18T23:10:05.925Z,99.90
2019-05-18T23:12:34.543Z,99.90
2019-05-18T23:15:06.285Z,99.90
2019-05-18T23:17:35.212Z,99.90
2019-05-18T23:20:05.828Z,99.90
2019-05-18T23:22:34.717Z,99.90
2019-05-18T23:25:05.226Z,99.90
2019-05-18T23:27:34.037Z,99.90
2019-05-18T23:30:08.955Z,99.90
2019-05-18T23:32:37.890Z,99.90
2019-05-18T23:35:06.897Z,99.90
2019-05-18T23:37:35.691Z,99.90
2019-05-18T23:40:08.092Z,99.90
2019-05-18T23:42:39.965Z,99.90
2019-05-18T23:45:08.946Z,99.90
2019-05-18T23:47:38.505Z,99.90
2019-05-18T23:50:08.916Z,99.90
2019-05-18T23:52:38.154Z,99.90
2019-05-18T23:55:07.689Z,99.90
2019-05-18T23:57:39.131Z,99.90
